<?xml version="1.0" encoding="UTF-8" standalone="no" ?>
<gpx xmlns="http://www.topografix.com/GPX/1/1" xmlns:xsi="http://www.w3.org/2001/XMLSchema-instance" xsi:schemaLocation="http://www.topografix.com/GPX/1/1 http://www.topografix.com/GPX/1/1/gpx.xsd" version="1.1" creator="VisuGPX - https://www.visugpx.com">
  <metadata>
    <name>Roquebrune P4 T3</name>
    <desc><![CDATA[13 participants, un bon groupe.
Bien pour le saint trou]]></desc>
  </metadata>
  <trk>
    <name><![CDATA[Roquebrune Ouest P4T3]]></name>
    <trkseg>
      <trkpt lat="43.46364" lon="6.57217">
        <ele>42.435425</ele>
        <time>2014-03-20T08:59:29Z</time>
      </trkpt>
      <trkpt lat="43.46362" lon="6.57238">
        <ele>43.396606</ele>
        <time>2014-03-20T09:03:19Z</time>
      </trkpt>
      <trkpt lat="43.46354" lon="6.57271">
        <ele>42.916016</ele>
        <time>2014-03-20T09:03:47Z</time>
      </trkpt>
      <trkpt lat="43.46337" lon="6.57304">
        <ele>41.473999</ele>
        <time>2014-03-20T09:04:09Z</time>
      </trkpt>
      <trkpt lat="43.46334" lon="6.5734">
        <ele>41.473999</ele>
        <time>2014-03-20T09:04:32Z</time>
      </trkpt>
      <trkpt lat="43.46348" lon="6.57371">
        <ele>41.473999</ele>
        <time>2014-03-20T09:04:54Z</time>
      </trkpt>
      <trkpt lat="43.46363" lon="6.57404">
        <ele>41.473999</ele>
        <time>2014-03-20T09:05:15Z</time>
      </trkpt>
      <trkpt lat="43.46364" lon="6.57441">
        <ele>41.473999</ele>
        <time>2014-03-20T09:05:36Z</time>
      </trkpt>
      <trkpt lat="43.46356" lon="6.57477">
        <ele>40.993408</ele>
        <time>2014-03-20T09:05:57Z</time>
      </trkpt>
      <trkpt lat="43.46353" lon="6.57515">
        <ele>40.512817</ele>
        <time>2014-03-20T09:06:18Z</time>
      </trkpt>
      <trkpt lat="43.46352" lon="6.57553">
        <ele>40.032104</ele>
        <time>2014-03-20T09:06:39Z</time>
      </trkpt>
      <trkpt lat="43.4635" lon="6.5759">
        <ele>41.473999</ele>
        <time>2014-03-20T09:07:02Z</time>
      </trkpt>
      <trkpt lat="43.46348" lon="6.57605">
        <ele>42.916016</ele>
        <time>2014-03-20T09:08:31Z</time>
      </trkpt>
      <trkpt lat="43.46347" lon="6.57638">
        <ele>41.473999</ele>
        <time>2014-03-20T09:10:48Z</time>
      </trkpt>
      <trkpt lat="43.46326" lon="6.57636">
        <ele>44.838623</ele>
        <time>2014-03-20T09:11:17Z</time>
      </trkpt>
      <trkpt lat="43.46298" lon="6.57631">
        <ele>48.68396</ele>
        <time>2014-03-20T09:11:49Z</time>
      </trkpt>
      <trkpt lat="43.46272" lon="6.57636">
        <ele>53.009766</ele>
        <time>2014-03-20T09:12:22Z</time>
      </trkpt>
      <trkpt lat="43.46245" lon="6.57649">
        <ele>56.855103</ele>
        <time>2014-03-20T09:12:54Z</time>
      </trkpt>
      <trkpt lat="43.4622" lon="6.57659">
        <ele>59.258423</ele>
        <time>2014-03-20T09:13:25Z</time>
      </trkpt>
      <trkpt lat="43.46194" lon="6.57671">
        <ele>63.103638</ele>
        <time>2014-03-20T09:13:59Z</time>
      </trkpt>
      <trkpt lat="43.46168" lon="6.57683">
        <ele>67.429688</ele>
        <time>2014-03-20T09:14:36Z</time>
      </trkpt>
      <trkpt lat="43.46141" lon="6.57694">
        <ele>72.716919</ele>
        <time>2014-03-20T09:15:14Z</time>
      </trkpt>
      <trkpt lat="43.46122" lon="6.57719">
        <ele>76.081421</ele>
        <time>2014-03-20T09:15:46Z</time>
      </trkpt>
      <trkpt lat="43.46099" lon="6.57739">
        <ele>79.926636</ele>
        <time>2014-03-20T09:16:19Z</time>
      </trkpt>
      <trkpt lat="43.4608" lon="6.57763">
        <ele>84.733398</ele>
        <time>2014-03-20T09:16:56Z</time>
      </trkpt>
      <trkpt lat="43.46053" lon="6.57766">
        <ele>87.617188</ele>
        <time>2014-03-20T09:17:34Z</time>
      </trkpt>
      <trkpt lat="43.46034" lon="6.57788">
        <ele>93.385132</ele>
        <time>2014-03-20T09:18:18Z</time>
      </trkpt>
      <trkpt lat="43.46016" lon="6.57793">
        <ele>99.633789</ele>
        <time>2014-03-20T09:20:38Z</time>
      </trkpt>
      <trkpt lat="43.45998" lon="6.57788">
        <ele>107.805054</ele>
        <time>2014-03-20T09:21:26Z</time>
      </trkpt>
      <trkpt lat="43.45975" lon="6.57795">
        <ele>113.572998</ele>
        <time>2014-03-20T09:22:09Z</time>
      </trkpt>
      <trkpt lat="43.45953" lon="6.57811">
        <ele>117.418213</ele>
        <time>2014-03-20T09:22:47Z</time>
      </trkpt>
      <trkpt lat="43.45925" lon="6.57819">
        <ele>122.224731</ele>
        <time>2014-03-20T09:23:29Z</time>
      </trkpt>
      <trkpt lat="43.45926" lon="6.57791">
        <ele>127.031372</ele>
        <time>2014-03-20T09:24:11Z</time>
      </trkpt>
      <trkpt lat="43.45922" lon="6.57758">
        <ele>127.031372</ele>
        <time>2014-03-20T09:24:41Z</time>
      </trkpt>
      <trkpt lat="43.45908" lon="6.57738">
        <ele>127.511963</ele>
        <time>2014-03-20T09:25:11Z</time>
      </trkpt>
      <trkpt lat="43.45881" lon="6.57739">
        <ele>130.876709</ele>
        <time>2014-03-20T09:25:44Z</time>
      </trkpt>
      <trkpt lat="43.45855" lon="6.57732">
        <ele>133.279907</ele>
        <time>2014-03-20T09:26:15Z</time>
      </trkpt>
      <trkpt lat="43.45829" lon="6.57743">
        <ele>135.683105</ele>
        <time>2014-03-20T09:26:47Z</time>
      </trkpt>
      <trkpt lat="43.45803" lon="6.57742">
        <ele>137.605835</ele>
        <time>2014-03-20T09:27:17Z</time>
      </trkpt>
      <trkpt lat="43.4578" lon="6.5774">
        <ele>141.931763</ele>
        <time>2014-03-20T09:27:56Z</time>
      </trkpt>
      <trkpt lat="43.45756" lon="6.57722">
        <ele>142.893066</ele>
        <time>2014-03-20T09:28:26Z</time>
      </trkpt>
      <trkpt lat="43.45737" lon="6.57694">
        <ele>142.893066</ele>
        <time>2014-03-20T09:28:52Z</time>
      </trkpt>
      <trkpt lat="43.45716" lon="6.57672">
        <ele>141.931763</ele>
        <time>2014-03-20T09:29:20Z</time>
      </trkpt>
      <trkpt lat="43.45699" lon="6.57642">
        <ele>140.489868</ele>
        <time>2014-03-20T09:29:45Z</time>
      </trkpt>
      <trkpt lat="43.4568" lon="6.57618">
        <ele>140.489868</ele>
        <time>2014-03-20T09:30:12Z</time>
      </trkpt>
      <trkpt lat="43.45654" lon="6.57609">
        <ele>142.893066</ele>
        <time>2014-03-20T09:30:47Z</time>
      </trkpt>
      <trkpt lat="43.45632" lon="6.57595">
        <ele>139.528442</ele>
        <time>2014-03-20T09:31:19Z</time>
      </trkpt>
      <trkpt lat="43.45611" lon="6.57595">
        <ele>139.047852</ele>
        <time>2014-03-20T09:31:49Z</time>
      </trkpt>
      <trkpt lat="43.45585" lon="6.57594">
        <ele>137.605835</ele>
        <time>2014-03-20T09:32:18Z</time>
      </trkpt>
      <trkpt lat="43.45557" lon="6.57596">
        <ele>136.644653</ele>
        <time>2014-03-20T09:32:42Z</time>
      </trkpt>
      <trkpt lat="43.4553" lon="6.57598">
        <ele>135.683105</ele>
        <time>2014-03-20T09:33:06Z</time>
      </trkpt>
      <trkpt lat="43.45494" lon="6.576">
        <ele>135.202515</ele>
        <time>2014-03-20T09:33:39Z</time>
      </trkpt>
      <trkpt lat="43.45463" lon="6.57603">
        <ele>135.683105</ele>
        <time>2014-03-20T09:34:08Z</time>
      </trkpt>
      <trkpt lat="43.45434" lon="6.57604">
        <ele>136.16394</ele>
        <time>2014-03-20T09:34:33Z</time>
      </trkpt>
      <trkpt lat="43.45406" lon="6.57602">
        <ele>136.16394</ele>
        <time>2014-03-20T09:34:57Z</time>
      </trkpt>
      <trkpt lat="43.45377" lon="6.57598">
        <ele>137.605835</ele>
        <time>2014-03-20T09:35:22Z</time>
      </trkpt>
      <trkpt lat="43.45349" lon="6.57597">
        <ele>138.567261</ele>
        <time>2014-03-20T09:35:48Z</time>
      </trkpt>
      <trkpt lat="43.45322" lon="6.57602">
        <ele>136.16394</ele>
        <time>2014-03-20T09:36:13Z</time>
      </trkpt>
      <trkpt lat="43.45299" lon="6.57622">
        <ele>139.047852</ele>
        <time>2014-03-20T09:36:44Z</time>
      </trkpt>
      <trkpt lat="43.45284" lon="6.57653">
        <ele>144.335205</ele>
        <time>2014-03-20T09:37:21Z</time>
      </trkpt>
      <trkpt lat="43.45278" lon="6.57688">
        <ele>147.699707</ele>
        <time>2014-03-20T09:37:53Z</time>
      </trkpt>
      <trkpt lat="43.45275" lon="6.57725">
        <ele>150.583618</ele>
        <time>2014-03-20T09:38:22Z</time>
      </trkpt>
      <trkpt lat="43.45273" lon="6.57762">
        <ele>152.025757</ele>
        <time>2014-03-20T09:38:50Z</time>
      </trkpt>
      <trkpt lat="43.45273" lon="6.57801">
        <ele>155.870972</ele>
        <time>2014-03-20T09:39:20Z</time>
      </trkpt>
      <trkpt lat="43.45272" lon="6.57838">
        <ele>160.196899</ele>
        <time>2014-03-20T09:39:52Z</time>
      </trkpt>
      <trkpt lat="43.45277" lon="6.57875">
        <ele>164.042114</ele>
        <time>2014-03-20T09:40:25Z</time>
      </trkpt>
      <trkpt lat="43.45268" lon="6.57911">
        <ele>168.848755</ele>
        <time>2014-03-20T09:40:56Z</time>
      </trkpt>
      <trkpt lat="43.45267" lon="6.57951">
        <ele>172.213257</ele>
        <time>2014-03-20T09:41:28Z</time>
      </trkpt>
      <trkpt lat="43.45257" lon="6.58016">
        <ele>179.903809</ele>
        <time>2014-03-20T09:42:16Z</time>
      </trkpt>
      <trkpt lat="43.45256" lon="6.58053">
        <ele>181.826416</ele>
        <time>2014-03-20T09:42:42Z</time>
      </trkpt>
      <trkpt lat="43.45254" lon="6.58092">
        <ele>182.787842</ele>
        <time>2014-03-20T09:43:08Z</time>
      </trkpt>
      <trkpt lat="43.45252" lon="6.58131">
        <ele>182.787842</ele>
        <time>2014-03-20T09:43:33Z</time>
      </trkpt>
      <trkpt lat="43.45253" lon="6.58169">
        <ele>179.903809</ele>
        <time>2014-03-20T09:43:56Z</time>
      </trkpt>
      <trkpt lat="43.45251" lon="6.58207">
        <ele>178.461914</ele>
        <time>2014-03-20T09:44:19Z</time>
      </trkpt>
      <trkpt lat="43.4525" lon="6.58243">
        <ele>177.50061</ele>
        <time>2014-03-20T09:44:42Z</time>
      </trkpt>
      <trkpt lat="43.4525" lon="6.58281">
        <ele>177.02002</ele>
        <time>2014-03-20T09:45:05Z</time>
      </trkpt>
      <trkpt lat="43.45252" lon="6.58319">
        <ele>176.058594</ele>
        <time>2014-03-20T09:45:28Z</time>
      </trkpt>
      <trkpt lat="43.45261" lon="6.58355">
        <ele>175.09729</ele>
        <time>2014-03-20T09:45:51Z</time>
      </trkpt>
      <trkpt lat="43.45248" lon="6.58391">
        <ele>175.577881</ele>
        <time>2014-03-20T09:46:14Z</time>
      </trkpt>
      <trkpt lat="43.45231" lon="6.5842">
        <ele>175.09729</ele>
        <time>2014-03-20T09:46:36Z</time>
      </trkpt>
      <trkpt lat="43.45217" lon="6.58454">
        <ele>175.577881</ele>
        <time>2014-03-20T09:46:58Z</time>
      </trkpt>
      <trkpt lat="43.45194" lon="6.5847">
        <ele>176.058594</ele>
        <time>2014-03-20T09:47:22Z</time>
      </trkpt>
      <trkpt lat="43.45172" lon="6.58493">
        <ele>177.981201</ele>
        <time>2014-03-20T09:47:46Z</time>
      </trkpt>
      <trkpt lat="43.4516" lon="6.58527">
        <ele>178.461914</ele>
        <time>2014-03-20T09:48:09Z</time>
      </trkpt>
      <trkpt lat="43.45156" lon="6.58565">
        <ele>178.942627</ele>
        <time>2014-03-20T09:48:32Z</time>
      </trkpt>
      <trkpt lat="43.4516" lon="6.58601">
        <ele>181.345825</ele>
        <time>2014-03-20T09:48:57Z</time>
      </trkpt>
      <trkpt lat="43.45152" lon="6.58638">
        <ele>180.384521</ele>
        <time>2014-03-20T09:49:21Z</time>
      </trkpt>
      <trkpt lat="43.45139" lon="6.58671">
        <ele>182.787842</ele>
        <time>2014-03-20T09:49:46Z</time>
      </trkpt>
      <trkpt lat="43.45121" lon="6.58698">
        <ele>183.268433</ele>
        <time>2014-03-20T09:50:10Z</time>
      </trkpt>
      <trkpt lat="43.45102" lon="6.58726">
        <ele>182.787842</ele>
        <time>2014-03-20T09:50:33Z</time>
      </trkpt>
      <trkpt lat="43.45084" lon="6.58754">
        <ele>181.345825</ele>
        <time>2014-03-20T09:50:56Z</time>
      </trkpt>
      <trkpt lat="43.45064" lon="6.58781">
        <ele>179.423218</ele>
        <time>2014-03-20T09:51:20Z</time>
      </trkpt>
      <trkpt lat="43.45043" lon="6.58805">
        <ele>178.461914</ele>
        <time>2014-03-20T09:51:44Z</time>
      </trkpt>
      <trkpt lat="43.45021" lon="6.58822">
        <ele>176.539307</ele>
        <time>2014-03-20T09:52:25Z</time>
      </trkpt>
      <trkpt lat="43.44999" lon="6.58848">
        <ele>174.135864</ele>
        <time>2014-03-20T09:52:48Z</time>
      </trkpt>
      <trkpt lat="43.44979" lon="6.58875">
        <ele>170.771362</ele>
        <time>2014-03-20T09:53:12Z</time>
      </trkpt>
      <trkpt lat="43.44956" lon="6.58897">
        <ele>168.368042</ele>
        <time>2014-03-20T09:53:36Z</time>
      </trkpt>
      <trkpt lat="43.44935" lon="6.58917">
        <ele>169.329468</ele>
        <time>2014-03-20T09:54:05Z</time>
      </trkpt>
      <trkpt lat="43.44926" lon="6.58951">
        <ele>169.810059</ele>
        <time>2014-03-20T09:54:31Z</time>
      </trkpt>
      <trkpt lat="43.44916" lon="6.58986">
        <ele>170.771362</ele>
        <time>2014-03-20T09:54:57Z</time>
      </trkpt>
      <trkpt lat="43.44909" lon="6.59021">
        <ele>173.174683</ele>
        <time>2014-03-20T09:55:24Z</time>
      </trkpt>
      <trkpt lat="43.44901" lon="6.59057">
        <ele>175.09729</ele>
        <time>2014-03-20T09:55:51Z</time>
      </trkpt>
      <trkpt lat="43.44891" lon="6.59091">
        <ele>177.50061</ele>
        <time>2014-03-20T09:56:19Z</time>
      </trkpt>
      <trkpt lat="43.44874" lon="6.59122">
        <ele>180.384521</ele>
        <time>2014-03-20T09:56:52Z</time>
      </trkpt>
      <trkpt lat="43.44868" lon="6.59158">
        <ele>181.826416</ele>
        <time>2014-03-20T09:57:20Z</time>
      </trkpt>
      <trkpt lat="43.4486" lon="6.59196">
        <ele>182.307129</ele>
        <time>2014-03-20T09:57:47Z</time>
      </trkpt>
      <trkpt lat="43.44846" lon="6.59236">
        <ele>182.787842</ele>
        <time>2014-03-20T09:58:15Z</time>
      </trkpt>
      <trkpt lat="43.44831" lon="6.59268">
        <ele>184.710571</ele>
        <time>2014-03-20T09:58:46Z</time>
      </trkpt>
      <trkpt lat="43.44815" lon="6.59301">
        <ele>186.633179</ele>
        <time>2014-03-20T09:59:16Z</time>
      </trkpt>
      <trkpt lat="43.44798" lon="6.59333">
        <ele>190.478394</ele>
        <time>2014-03-20T09:59:50Z</time>
      </trkpt>
      <trkpt lat="43.44789" lon="6.59367">
        <ele>191.920288</ele>
        <time>2014-03-20T10:00:18Z</time>
      </trkpt>
      <trkpt lat="43.44796" lon="6.59399">
        <ele>193.843018</ele>
        <time>2014-03-20T10:00:45Z</time>
      </trkpt>
      <trkpt lat="43.44813" lon="6.59427">
        <ele>196.726929</ele>
        <time>2014-03-20T10:01:12Z</time>
      </trkpt>
      <trkpt lat="43.44813" lon="6.59452">
        <ele>195.765625</ele>
        <time>2014-03-20T10:10:25Z</time>
      </trkpt>
      <trkpt lat="43.44817" lon="6.59489">
        <ele>196.246338</ele>
        <time>2014-03-20T10:10:52Z</time>
      </trkpt>
      <trkpt lat="43.44829" lon="6.59522">
        <ele>198.168945</ele>
        <time>2014-03-20T10:11:20Z</time>
      </trkpt>
      <trkpt lat="43.44832" lon="6.59557">
        <ele>202.014282</ele>
        <time>2014-03-20T10:11:57Z</time>
      </trkpt>
      <trkpt lat="43.44838" lon="6.59593">
        <ele>205.378784</ele>
        <time>2014-03-20T10:12:35Z</time>
      </trkpt>
      <trkpt lat="43.44841" lon="6.59623">
        <ele>206.820679</ele>
        <time>2014-03-20T10:13:16Z</time>
      </trkpt>
      <trkpt lat="43.4484" lon="6.5966">
        <ele>205.378784</ele>
        <time>2014-03-20T10:13:44Z</time>
      </trkpt>
      <trkpt lat="43.44856" lon="6.59687">
        <ele>209.224121</ele>
        <time>2014-03-20T10:14:23Z</time>
      </trkpt>
      <trkpt lat="43.44865" lon="6.59717">
        <ele>210.185425</ele>
        <time>2014-03-20T10:15:05Z</time>
      </trkpt>
      <trkpt lat="43.44876" lon="6.59751">
        <ele>213.550049</ele>
        <time>2014-03-20T10:15:45Z</time>
      </trkpt>
      <trkpt lat="43.44886" lon="6.59776">
        <ele>216.43396</ele>
        <time>2014-03-20T10:16:39Z</time>
      </trkpt>
      <trkpt lat="43.44896" lon="6.59802">
        <ele>218.83728</ele>
        <time>2014-03-20T10:17:24Z</time>
      </trkpt>
      <trkpt lat="43.44899" lon="6.59835">
        <ele>219.798584</ele>
        <time>2014-03-20T10:18:02Z</time>
      </trkpt>
      <trkpt lat="43.4491" lon="6.59864">
        <ele>225.566528</ele>
        <time>2014-03-20T10:18:57Z</time>
      </trkpt>
      <trkpt lat="43.44909" lon="6.59906">
        <ele>225.085938</ele>
        <time>2014-03-20T10:19:57Z</time>
      </trkpt>
      <trkpt lat="43.44927" lon="6.5993">
        <ele>233.737671</ele>
        <time>2014-03-20T10:21:06Z</time>
      </trkpt>
      <trkpt lat="43.44936" lon="6.59944">
        <ele>240.947632</ele>
        <time>2014-03-20T10:22:07Z</time>
      </trkpt>
      <trkpt lat="43.44957" lon="6.59964">
        <ele>248.638184</ele>
        <time>2014-03-20T10:22:59Z</time>
      </trkpt>
      <trkpt lat="43.44971" lon="6.59972">
        <ele>255.36731</ele>
        <time>2014-03-20T10:23:52Z</time>
      </trkpt>
      <trkpt lat="43.4498" lon="6.6">
        <ele>263.538574</ele>
        <time>2014-03-20T10:25:04Z</time>
      </trkpt>
      <trkpt lat="43.45" lon="6.60015">
        <ele>276.516357</ele>
        <time>2014-03-20T10:26:14Z</time>
      </trkpt>
      <trkpt lat="43.45021" lon="6.60029">
        <ele>282.765015</ele>
        <time>2014-03-20T10:29:09Z</time>
      </trkpt>
      <trkpt lat="43.45035" lon="6.6006">
        <ele>290.936157</ele>
        <time>2014-03-20T10:30:19Z</time>
      </trkpt>
      <trkpt lat="43.45048" lon="6.60079">
        <ele>302.952515</ele>
        <time>2014-03-20T10:31:35Z</time>
      </trkpt>
      <trkpt lat="43.45066" lon="6.60085">
        <ele>306.317261</ele>
        <time>2014-03-20T10:33:16Z</time>
      </trkpt>
      <trkpt lat="43.4507" lon="6.60119">
        <ele>310.643066</ele>
        <time>2014-03-20T10:33:59Z</time>
      </trkpt>
      <trkpt lat="43.45056" lon="6.60134">
        <ele>316.891724</ele>
        <time>2014-03-20T10:35:00Z</time>
      </trkpt>
      <trkpt lat="43.45055" lon="6.60162">
        <ele>322.659668</ele>
        <time>2014-03-20T10:35:47Z</time>
      </trkpt>
      <trkpt lat="43.45056" lon="6.60192">
        <ele>324.582275</ele>
        <time>2014-03-20T10:36:20Z</time>
      </trkpt>
      <trkpt lat="43.4506" lon="6.60226">
        <ele>330.35022</ele>
        <time>2014-03-20T10:37:07Z</time>
      </trkpt>
      <trkpt lat="43.45065" lon="6.60257">
        <ele>339.482666</ele>
        <time>2014-03-20T10:38:20Z</time>
      </trkpt>
      <trkpt lat="43.45078" lon="6.60286">
        <ele>349.095825</ele>
        <time>2014-03-20T10:39:47Z</time>
      </trkpt>
      <trkpt lat="43.45053" lon="6.60289">
        <ele>355.825195</ele>
        <time>2014-03-20T10:40:40Z</time>
      </trkpt>
      <trkpt lat="43.45038" lon="6.60304">
        <ele>353.421875</ele>
        <time>2014-03-20T10:41:30Z</time>
      </trkpt>
      <trkpt lat="43.4503" lon="6.60331">
        <ele>353.902588</ele>
        <time>2014-03-20T10:42:21Z</time>
      </trkpt>
      <trkpt lat="43.45014" lon="6.60321">
        <ele>349.576538</ele>
        <time>2014-03-20T10:45:39Z</time>
      </trkpt>
      <trkpt lat="43.44995" lon="6.60305">
        <ele>342.366699</ele>
        <time>2014-03-20T10:50:11Z</time>
      </trkpt>
      <trkpt lat="43.44975" lon="6.6032">
        <ele>333.714722</ele>
        <time>2014-03-20T10:51:41Z</time>
      </trkpt>
      <trkpt lat="43.44956" lon="6.60336">
        <ele>334.676147</ele>
        <time>2014-03-20T10:52:46Z</time>
      </trkpt>
      <trkpt lat="43.44953" lon="6.60336">
        <ele>332.75354</ele>
        <time>2014-03-20T10:54:07Z</time>
      </trkpt>
      <trkpt lat="43.44945" lon="6.60369">
        <ele>339.963379</ele>
        <time>2014-03-20T10:55:44Z</time>
      </trkpt>
      <trkpt lat="43.4494" lon="6.60384">
        <ele>361.112427</ele>
        <time>2014-03-20T11:02:16Z</time>
      </trkpt>
      <trkpt lat="43.44941" lon="6.60391">
        <ele>362.554321</ele>
        <time>2014-03-20T11:05:26Z</time>
      </trkpt>
      <trkpt lat="43.44932" lon="6.60384">
        <ele>367.841553</ele>
        <time>2014-03-20T11:18:55Z</time>
      </trkpt>
      <trkpt lat="43.44946" lon="6.60381">
        <ele>359.67041</ele>
        <time>2014-03-20T11:22:35Z</time>
      </trkpt>
      <trkpt lat="43.44939" lon="6.60366">
        <ele>346.212036</ele>
        <time>2014-03-20T11:41:56Z</time>
      </trkpt>
      <trkpt lat="43.4494" lon="6.60345">
        <ele>330.35022</ele>
        <time>2014-03-20T11:45:04Z</time>
      </trkpt>
      <trkpt lat="43.44955" lon="6.60329">
        <ele>329.388916</ele>
        <time>2014-03-20T11:46:13Z</time>
      </trkpt>
      <trkpt lat="43.44973" lon="6.60317">
        <ele>329.388916</ele>
        <time>2014-03-20T11:46:57Z</time>
      </trkpt>
      <trkpt lat="43.4499" lon="6.603">
        <ele>338.521484</ele>
        <time>2014-03-20T11:47:50Z</time>
      </trkpt>
      <trkpt lat="43.45014" lon="6.60308">
        <ele>342.84729</ele>
        <time>2014-03-20T11:48:46Z</time>
      </trkpt>
      <trkpt lat="43.45033" lon="6.60307">
        <ele>352.460571</ele>
        <time>2014-03-20T11:49:57Z</time>
      </trkpt>
      <trkpt lat="43.45053" lon="6.60292">
        <ele>351.979858</ele>
        <time>2014-03-20T11:50:38Z</time>
      </trkpt>
      <trkpt lat="43.45075" lon="6.6028">
        <ele>350.537842</ele>
        <time>2014-03-20T11:51:14Z</time>
      </trkpt>
      <trkpt lat="43.45067" lon="6.60262">
        <ele>339.963379</ele>
        <time>2014-03-20T11:52:09Z</time>
      </trkpt>
      <trkpt lat="43.45061" lon="6.60232">
        <ele>331.792114</ele>
        <time>2014-03-20T11:52:57Z</time>
      </trkpt>
      <trkpt lat="43.4506" lon="6.60199">
        <ele>324.101563</ele>
        <time>2014-03-20T11:53:43Z</time>
      </trkpt>
      <trkpt lat="43.45062" lon="6.60176">
        <ele>322.178955</ele>
        <time>2014-03-20T11:56:18Z</time>
      </trkpt>
      <trkpt lat="43.45061" lon="6.60145">
        <ele>319.295044</ele>
        <time>2014-03-20T11:56:51Z</time>
      </trkpt>
      <trkpt lat="43.45065" lon="6.60122">
        <ele>311.123779</ele>
        <time>2014-03-20T11:57:45Z</time>
      </trkpt>
      <trkpt lat="43.45078" lon="6.60096">
        <ele>306.797852</ele>
        <time>2014-03-20T11:58:18Z</time>
      </trkpt>
      <trkpt lat="43.4509" lon="6.60074">
        <ele>306.317261</ele>
        <time>2014-03-20T11:59:59Z</time>
      </trkpt>
      <trkpt lat="43.45087" lon="6.60045">
        <ele>306.317261</ele>
        <time>2014-03-20T12:00:35Z</time>
      </trkpt>
      <trkpt lat="43.4509" lon="6.60014">
        <ele>316.891724</ele>
        <time>2014-03-20T12:01:45Z</time>
      </trkpt>
      <trkpt lat="43.45084" lon="6.59992">
        <ele>331.311523</ele>
        <time>2014-03-20T12:05:43Z</time>
      </trkpt>
      <trkpt lat="43.45081" lon="6.5997">
        <ele>348.134644</ele>
        <time>2014-03-20T12:15:40Z</time>
      </trkpt>
      <trkpt lat="43.45092" lon="6.59938">
        <ele>347.653931</ele>
        <time>2014-03-20T12:16:59Z</time>
      </trkpt>
      <trkpt lat="43.451" lon="6.59917">
        <ele>339.002075</ele>
        <time>2014-03-20T12:18:19Z</time>
      </trkpt>
      <trkpt lat="43.45099" lon="6.59885">
        <ele>337.079468</ele>
        <time>2014-03-20T12:18:50Z</time>
      </trkpt>
      <trkpt lat="43.45091" lon="6.59853">
        <ele>338.040771</ele>
        <time>2014-03-20T12:19:24Z</time>
      </trkpt>
      <trkpt lat="43.45111" lon="6.59837">
        <ele>333.714722</ele>
        <time>2014-03-20T12:19:55Z</time>
      </trkpt>
      <trkpt lat="43.45119" lon="6.59808">
        <ele>332.272827</ele>
        <time>2014-03-20T12:20:26Z</time>
      </trkpt>
      <trkpt lat="43.45112" lon="6.59786">
        <ele>332.272827</ele>
        <time>2014-03-20T12:21:15Z</time>
      </trkpt>
      <trkpt lat="43.45089" lon="6.59771">
        <ele>331.311523</ele>
        <time>2014-03-20T12:21:42Z</time>
      </trkpt>
      <trkpt lat="43.45094" lon="6.59745">
        <ele>325.543579</ele>
        <time>2014-03-20T12:22:12Z</time>
      </trkpt>
      <trkpt lat="43.45094" lon="6.59708">
        <ele>316.891724</ele>
        <time>2014-03-20T12:22:56Z</time>
      </trkpt>
      <trkpt lat="43.45093" lon="6.59677">
        <ele>312.085205</ele>
        <time>2014-03-20T12:23:26Z</time>
      </trkpt>
      <trkpt lat="43.4512" lon="6.59679">
        <ele>309.201172</ele>
        <time>2014-03-20T12:23:57Z</time>
      </trkpt>
      <trkpt lat="43.45145" lon="6.5966">
        <ele>306.317261</ele>
        <time>2014-03-20T12:25:16Z</time>
      </trkpt>
      <trkpt lat="43.45171" lon="6.59649">
        <ele>299.1073</ele>
        <time>2014-03-20T12:25:46Z</time>
      </trkpt>
      <trkpt lat="43.4518" lon="6.59622">
        <ele>290.936157</ele>
        <time>2014-03-20T12:26:26Z</time>
      </trkpt>
      <trkpt lat="43.45193" lon="6.59597">
        <ele>282.284302</ele>
        <time>2014-03-20T12:27:05Z</time>
      </trkpt>
      <trkpt lat="43.45216" lon="6.59574">
        <ele>269.787109</ele>
        <time>2014-03-20T12:28:02Z</time>
      </trkpt>
      <trkpt lat="43.45234" lon="6.59549">
        <ele>256.809326</ele>
        <time>2014-03-20T12:29:37Z</time>
      </trkpt>
      <trkpt lat="43.45243" lon="6.59532">
        <ele>245.273438</ele>
        <time>2014-03-20T12:30:36Z</time>
      </trkpt>
      <trkpt lat="43.45255" lon="6.59501">
        <ele>235.660278</ele>
        <time>2014-03-20T12:31:24Z</time>
      </trkpt>
      <trkpt lat="43.45279" lon="6.59488">
        <ele>227.489136</ele>
        <time>2014-03-20T12:32:03Z</time>
      </trkpt>
      <trkpt lat="43.45304" lon="6.59477">
        <ele>221.721191</ele>
        <time>2014-03-20T12:32:41Z</time>
      </trkpt>
      <trkpt lat="43.45327" lon="6.59459">
        <ele>214.991943</ele>
        <time>2014-03-20T12:33:14Z</time>
      </trkpt>
      <trkpt lat="43.45345" lon="6.59481">
        <ele>207.782104</ele>
        <time>2014-03-20T12:35:19Z</time>
      </trkpt>
      <trkpt lat="43.45367" lon="6.59506">
        <ele>202.494873</ele>
        <time>2014-03-20T12:35:59Z</time>
      </trkpt>
      <trkpt lat="43.45391" lon="6.59531">
        <ele>194.804321</ele>
        <time>2014-03-20T12:36:52Z</time>
      </trkpt>
      <trkpt lat="43.4539" lon="6.59498">
        <ele>200.091675</ele>
        <time>2014-03-20T12:38:27Z</time>
      </trkpt>
      <trkpt lat="43.45375" lon="6.59467">
        <ele>207.782104</ele>
        <time>2014-03-20T12:39:27Z</time>
      </trkpt>
      <trkpt lat="43.45375" lon="6.59437">
        <ele>216.914673</ele>
        <time>2014-03-20T12:42:18Z</time>
      </trkpt>
      <trkpt lat="43.45366" lon="6.59405">
        <ele>221.721191</ele>
        <time>2014-03-20T12:42:55Z</time>
      </trkpt>
      <trkpt lat="43.45362" lon="6.59374">
        <ele>226.527832</ele>
        <time>2014-03-20T12:43:40Z</time>
      </trkpt>
      <trkpt lat="43.45362" lon="6.59377">
        <ele>226.047119</ele>
        <time>2014-03-20T13:30:42Z</time>
      </trkpt>
      <trkpt lat="43.45354" lon="6.59404">
        <ele>217.875977</ele>
        <time>2014-03-20T13:31:21Z</time>
      </trkpt>
      <trkpt lat="43.45339" lon="6.59431">
        <ele>213.069336</ele>
        <time>2014-03-20T13:32:00Z</time>
      </trkpt>
      <trkpt lat="43.45366" lon="6.59464">
        <ele>206.340088</ele>
        <time>2014-03-20T13:32:54Z</time>
      </trkpt>
      <trkpt lat="43.45383" lon="6.59495">
        <ele>199.61084</ele>
        <time>2014-03-20T13:33:39Z</time>
      </trkpt>
      <trkpt lat="43.4539" lon="6.59525">
        <ele>193.843018</ele>
        <time>2014-03-20T13:34:22Z</time>
      </trkpt>
      <trkpt lat="43.454" lon="6.59553">
        <ele>188.075073</ele>
        <time>2014-03-20T13:35:15Z</time>
      </trkpt>
      <trkpt lat="43.45423" lon="6.59574">
        <ele>180.384521</ele>
        <time>2014-03-20T13:36:06Z</time>
      </trkpt>
      <trkpt lat="43.45443" lon="6.59593">
        <ele>174.135864</ele>
        <time>2014-03-20T13:37:43Z</time>
      </trkpt>
      <trkpt lat="43.45445" lon="6.59627">
        <ele>167.406738</ele>
        <time>2014-03-20T13:38:39Z</time>
      </trkpt>
      <trkpt lat="43.45459" lon="6.59653">
        <ele>161.158203</ele>
        <time>2014-03-20T13:39:14Z</time>
      </trkpt>
      <trkpt lat="43.45474" lon="6.59679">
        <ele>152.506348</ele>
        <time>2014-03-20T13:39:55Z</time>
      </trkpt>
      <trkpt lat="43.4549" lon="6.59708">
        <ele>143.85437</ele>
        <time>2014-03-20T13:40:37Z</time>
      </trkpt>
      <trkpt lat="43.45503" lon="6.59731">
        <ele>136.644653</ele>
        <time>2014-03-20T13:42:25Z</time>
      </trkpt>
      <trkpt lat="43.45521" lon="6.59755">
        <ele>127.511963</ele>
        <time>2014-03-20T13:43:18Z</time>
      </trkpt>
      <trkpt lat="43.4554" lon="6.59773">
        <ele>117.418213</ele>
        <time>2014-03-20T13:44:15Z</time>
      </trkpt>
      <trkpt lat="43.4556" lon="6.59785">
        <ele>108.285645</ele>
        <time>2014-03-20T13:44:53Z</time>
      </trkpt>
      <trkpt lat="43.45584" lon="6.59797">
        <ele>102.037109</ele>
        <time>2014-03-20T13:45:26Z</time>
      </trkpt>
      <trkpt lat="43.45609" lon="6.59798">
        <ele>96.749878</ele>
        <time>2014-03-20T13:46:41Z</time>
      </trkpt>
      <trkpt lat="43.45636" lon="6.59795">
        <ele>95.307739</ele>
        <time>2014-03-20T13:47:12Z</time>
      </trkpt>
      <trkpt lat="43.45662" lon="6.59791">
        <ele>91.462524</ele>
        <time>2014-03-20T13:47:41Z</time>
      </trkpt>
      <trkpt lat="43.45689" lon="6.59798">
        <ele>85.69458</ele>
        <time>2014-03-20T13:48:08Z</time>
      </trkpt>
      <trkpt lat="43.45713" lon="6.59793">
        <ele>79.926636</ele>
        <time>2014-03-20T13:48:37Z</time>
      </trkpt>
      <trkpt lat="43.45738" lon="6.59782">
        <ele>76.562134</ele>
        <time>2014-03-20T13:49:06Z</time>
      </trkpt>
      <trkpt lat="43.45758" lon="6.59776">
        <ele>71.755493</ele>
        <time>2014-03-20T13:49:46Z</time>
      </trkpt>
      <trkpt lat="43.45782" lon="6.59776">
        <ele>64.545654</ele>
        <time>2014-03-20T13:50:19Z</time>
      </trkpt>
      <trkpt lat="43.45806" lon="6.59772">
        <ele>60.700317</ele>
        <time>2014-03-20T13:54:12Z</time>
      </trkpt>
      <trkpt lat="43.45831" lon="6.59754">
        <ele>55.893799</ele>
        <time>2014-03-20T13:54:38Z</time>
      </trkpt>
      <trkpt lat="43.4584" lon="6.59718">
        <ele>54.451782</ele>
        <time>2014-03-20T13:55:03Z</time>
      </trkpt>
      <trkpt lat="43.45851" lon="6.59684">
        <ele>51.087158</ele>
        <time>2014-03-20T13:55:27Z</time>
      </trkpt>
      <trkpt lat="43.4587" lon="6.59658">
        <ele>47.722534</ele>
        <time>2014-03-20T13:55:52Z</time>
      </trkpt>
      <trkpt lat="43.45885" lon="6.59626">
        <ele>44.358032</ele>
        <time>2014-03-20T13:56:17Z</time>
      </trkpt>
      <trkpt lat="43.45898" lon="6.596">
        <ele>38.109375</ele>
        <time>2014-03-20T13:56:50Z</time>
      </trkpt>
      <trkpt lat="43.45892" lon="6.59563">
        <ele>39.55127</ele>
        <time>2014-03-20T13:57:17Z</time>
      </trkpt>
      <trkpt lat="43.45877" lon="6.59538">
        <ele>43.396606</ele>
        <time>2014-03-20T13:57:56Z</time>
      </trkpt>
      <trkpt lat="43.45859" lon="6.59514">
        <ele>45.799927</ele>
        <time>2014-03-20T13:58:31Z</time>
      </trkpt>
      <trkpt lat="43.45844" lon="6.59487">
        <ele>46.76123</ele>
        <time>2014-03-20T13:59:14Z</time>
      </trkpt>
      <trkpt lat="43.45829" lon="6.59459">
        <ele>46.76123</ele>
        <time>2014-03-20T14:00:17Z</time>
      </trkpt>
      <trkpt lat="43.45833" lon="6.59419">
        <ele>49.164551</ele>
        <time>2014-03-20T14:01:04Z</time>
      </trkpt>
      <trkpt lat="43.45865" lon="6.59409">
        <ele>41.954712</ele>
        <time>2014-03-20T14:01:41Z</time>
      </trkpt>
      <trkpt lat="43.4589" lon="6.59419">
        <ele>36.186768</ele>
        <time>2014-03-20T14:02:24Z</time>
      </trkpt>
      <trkpt lat="43.4591" lon="6.59389">
        <ele>32.822266</ele>
        <time>2014-03-20T14:02:54Z</time>
      </trkpt>
      <trkpt lat="43.45906" lon="6.59343">
        <ele>33.302856</ele>
        <time>2014-03-20T14:04:46Z</time>
      </trkpt>
      <trkpt lat="43.45935" lon="6.59334">
        <ele>29.45752</ele>
        <time>2014-03-20T14:05:17Z</time>
      </trkpt>
      <trkpt lat="43.45962" lon="6.59323">
        <ele>24.170288</ele>
        <time>2014-03-20T14:05:44Z</time>
      </trkpt>
      <trkpt lat="43.45966" lon="6.59287">
        <ele>25.612305</ele>
        <time>2014-03-20T14:06:45Z</time>
      </trkpt>
      <trkpt lat="43.4594" lon="6.59283">
        <ele>29.93811</ele>
        <time>2014-03-20T14:07:31Z</time>
      </trkpt>
      <trkpt lat="43.45917" lon="6.59307">
        <ele>33.783447</ele>
        <time>2014-03-20T14:08:09Z</time>
      </trkpt>
      <trkpt lat="43.45894" lon="6.59328">
        <ele>39.070679</ele>
        <time>2014-03-20T14:08:48Z</time>
      </trkpt>
      <trkpt lat="43.45885" lon="6.59297">
        <ele>43.396606</ele>
        <time>2014-03-20T14:09:27Z</time>
      </trkpt>
      <trkpt lat="43.45889" lon="6.5926">
        <ele>49.164551</ele>
        <time>2014-03-20T14:10:09Z</time>
      </trkpt>
      <trkpt lat="43.45902" lon="6.59235">
        <ele>57.335815</ele>
        <time>2014-03-20T15:11:33Z</time>
      </trkpt>
      <trkpt lat="43.45892" lon="6.59279">
        <ele>52.048584</ele>
        <time>2014-03-20T15:12:07Z</time>
      </trkpt>
      <trkpt lat="43.45891" lon="6.59316">
        <ele>46.76123</ele>
        <time>2014-03-20T15:12:49Z</time>
      </trkpt>
      <trkpt lat="43.45912" lon="6.59313">
        <ele>42.916016</ele>
        <time>2014-03-20T15:13:30Z</time>
      </trkpt>
      <trkpt lat="43.45935" lon="6.59289">
        <ele>38.590088</ele>
        <time>2014-03-20T15:14:15Z</time>
      </trkpt>
      <trkpt lat="43.4596" lon="6.59273">
        <ele>32.822266</ele>
        <time>2014-03-20T15:15:04Z</time>
      </trkpt>
      <trkpt lat="43.45983" lon="6.59308">
        <ele>28.976929</ele>
        <time>2014-03-20T15:15:33Z</time>
      </trkpt>
      <trkpt lat="43.46008" lon="6.59306">
        <ele>25.612305</ele>
        <time>2014-03-20T15:16:04Z</time>
      </trkpt>
      <trkpt lat="43.46017" lon="6.59272">
        <ele>22.728271</ele>
        <time>2014-03-20T15:16:29Z</time>
      </trkpt>
      <trkpt lat="43.46042" lon="6.59267">
        <ele>18.883057</ele>
        <time>2014-03-20T15:16:56Z</time>
      </trkpt>
      <trkpt lat="43.46064" lon="6.59252">
        <ele>18.883057</ele>
        <time>2014-03-20T15:17:20Z</time>
      </trkpt>
      <trkpt lat="43.46076" lon="6.59218">
        <ele>18.883057</ele>
        <time>2014-03-20T15:17:46Z</time>
      </trkpt>
      <trkpt lat="43.46086" lon="6.59182">
        <ele>18.883057</ele>
        <time>2014-03-20T15:18:11Z</time>
      </trkpt>
      <trkpt lat="43.46093" lon="6.59145">
        <ele>19.36377</ele>
        <time>2014-03-20T15:18:36Z</time>
      </trkpt>
      <trkpt lat="43.46103" lon="6.5911">
        <ele>19.36377</ele>
        <time>2014-03-20T15:19:02Z</time>
      </trkpt>
      <trkpt lat="43.46111" lon="6.59072">
        <ele>18.883057</ele>
        <time>2014-03-20T15:19:31Z</time>
      </trkpt>
      <trkpt lat="43.46119" lon="6.59034">
        <ele>18.883057</ele>
        <time>2014-03-20T15:19:59Z</time>
      </trkpt>
      <trkpt lat="43.46127" lon="6.58997">
        <ele>19.36377</ele>
        <time>2014-03-20T15:20:26Z</time>
      </trkpt>
      <trkpt lat="43.46136" lon="6.5896">
        <ele>19.36377</ele>
        <time>2014-03-20T15:20:53Z</time>
      </trkpt>
      <trkpt lat="43.46144" lon="6.58921">
        <ele>19.36377</ele>
        <time>2014-03-20T15:21:18Z</time>
      </trkpt>
      <trkpt lat="43.46152" lon="6.58885">
        <ele>19.36377</ele>
        <time>2014-03-20T15:21:42Z</time>
      </trkpt>
      <trkpt lat="43.46161" lon="6.58849">
        <ele>19.84436</ele>
        <time>2014-03-20T15:22:06Z</time>
      </trkpt>
      <trkpt lat="43.4617" lon="6.58812">
        <ele>19.84436</ele>
        <time>2014-03-20T15:22:30Z</time>
      </trkpt>
      <trkpt lat="43.46177" lon="6.58774">
        <ele>19.84436</ele>
        <time>2014-03-20T15:22:55Z</time>
      </trkpt>
      <trkpt lat="43.46185" lon="6.58736">
        <ele>20.324951</ele>
        <time>2014-03-20T15:23:18Z</time>
      </trkpt>
      <trkpt lat="43.46193" lon="6.58699">
        <ele>20.324951</ele>
        <time>2014-03-20T15:23:42Z</time>
      </trkpt>
      <trkpt lat="43.46201" lon="6.58663">
        <ele>19.84436</ele>
        <time>2014-03-20T15:24:05Z</time>
      </trkpt>
      <trkpt lat="43.4621" lon="6.58626">
        <ele>20.324951</ele>
        <time>2014-03-20T15:24:30Z</time>
      </trkpt>
      <trkpt lat="43.46218" lon="6.58588">
        <ele>19.84436</ele>
        <time>2014-03-20T15:24:57Z</time>
      </trkpt>
      <trkpt lat="43.46227" lon="6.5855">
        <ele>19.84436</ele>
        <time>2014-03-20T15:25:21Z</time>
      </trkpt>
      <trkpt lat="43.46235" lon="6.58511">
        <ele>19.84436</ele>
        <time>2014-03-20T15:25:44Z</time>
      </trkpt>
      <trkpt lat="43.46241" lon="6.58474">
        <ele>20.324951</ele>
        <time>2014-03-20T15:26:07Z</time>
      </trkpt>
      <trkpt lat="43.46249" lon="6.58436">
        <ele>20.324951</ele>
        <time>2014-03-20T15:26:32Z</time>
      </trkpt>
      <trkpt lat="43.46256" lon="6.58395">
        <ele>19.84436</ele>
        <time>2014-03-20T15:26:58Z</time>
      </trkpt>
      <trkpt lat="43.46264" lon="6.58356">
        <ele>19.84436</ele>
        <time>2014-03-20T15:27:22Z</time>
      </trkpt>
      <trkpt lat="43.46271" lon="6.58317">
        <ele>19.36377</ele>
        <time>2014-03-20T15:27:46Z</time>
      </trkpt>
      <trkpt lat="43.4627" lon="6.58279">
        <ele>18.883057</ele>
        <time>2014-03-20T15:28:08Z</time>
      </trkpt>
      <trkpt lat="43.46277" lon="6.58241">
        <ele>20.324951</ele>
        <time>2014-03-20T15:28:35Z</time>
      </trkpt>
      <trkpt lat="43.46288" lon="6.58205">
        <ele>21.766968</ele>
        <time>2014-03-20T15:28:59Z</time>
      </trkpt>
      <trkpt lat="43.46297" lon="6.58169">
        <ele>22.728271</ele>
        <time>2014-03-20T15:29:22Z</time>
      </trkpt>
      <trkpt lat="43.46307" lon="6.58133">
        <ele>22.247559</ele>
        <time>2014-03-20T15:29:45Z</time>
      </trkpt>
      <trkpt lat="43.46315" lon="6.58097">
        <ele>21.286377</ele>
        <time>2014-03-20T15:30:10Z</time>
      </trkpt>
      <trkpt lat="43.46323" lon="6.58059">
        <ele>21.286377</ele>
        <time>2014-03-20T15:30:33Z</time>
      </trkpt>
      <trkpt lat="43.46331" lon="6.58022">
        <ele>21.766968</ele>
        <time>2014-03-20T15:30:56Z</time>
      </trkpt>
      <trkpt lat="43.46338" lon="6.57986">
        <ele>21.766968</ele>
        <time>2014-03-20T15:31:19Z</time>
      </trkpt>
      <trkpt lat="43.46346" lon="6.57949">
        <ele>23.208984</ele>
        <time>2014-03-20T15:31:42Z</time>
      </trkpt>
      <trkpt lat="43.4635" lon="6.57911">
        <ele>24.651001</ele>
        <time>2014-03-20T15:32:05Z</time>
      </trkpt>
      <trkpt lat="43.46348" lon="6.57873">
        <ele>26.573608</ele>
        <time>2014-03-20T15:32:31Z</time>
      </trkpt>
      <trkpt lat="43.46345" lon="6.57837">
        <ele>30.418823</ele>
        <time>2014-03-20T15:33:06Z</time>
      </trkpt>
      <trkpt lat="43.46345" lon="6.57795">
        <ele>29.93811</ele>
        <time>2014-03-20T15:33:36Z</time>
      </trkpt>
      <trkpt lat="43.46347" lon="6.57757">
        <ele>33.783447</ele>
        <time>2014-03-20T15:34:15Z</time>
      </trkpt>
      <trkpt lat="43.46364" lon="6.57725">
        <ele>35.225464</ele>
        <time>2014-03-20T15:34:43Z</time>
      </trkpt>
      <trkpt lat="43.46376" lon="6.57692">
        <ele>35.706055</ele>
        <time>2014-03-20T15:35:10Z</time>
      </trkpt>
      <trkpt lat="43.46371" lon="6.57655">
        <ele>36.186768</ele>
        <time>2014-03-20T15:35:33Z</time>
      </trkpt>
      <trkpt lat="43.46372" lon="6.57618">
        <ele>36.66748</ele>
        <time>2014-03-20T15:35:57Z</time>
      </trkpt>
      <trkpt lat="43.46361" lon="6.57584">
        <ele>36.66748</ele>
        <time>2014-03-20T15:36:22Z</time>
      </trkpt>
      <trkpt lat="43.46354" lon="6.57548">
        <ele>36.66748</ele>
        <time>2014-03-20T15:36:46Z</time>
      </trkpt>
      <trkpt lat="43.46357" lon="6.5751">
        <ele>37.148071</ele>
        <time>2014-03-20T15:37:09Z</time>
      </trkpt>
      <trkpt lat="43.46361" lon="6.57472">
        <ele>37.148071</ele>
        <time>2014-03-20T15:37:32Z</time>
      </trkpt>
      <trkpt lat="43.46368" lon="6.57436">
        <ele>37.628662</ele>
        <time>2014-03-20T15:37:55Z</time>
      </trkpt>
      <trkpt lat="43.46365" lon="6.57398">
        <ele>38.109375</ele>
        <time>2014-03-20T15:38:18Z</time>
      </trkpt>
      <trkpt lat="43.4635" lon="6.57366">
        <ele>38.109375</ele>
        <time>2014-03-20T15:38:41Z</time>
      </trkpt>
      <trkpt lat="43.46336" lon="6.57334">
        <ele>38.109375</ele>
        <time>2014-03-20T15:39:05Z</time>
      </trkpt>
      <trkpt lat="43.46342" lon="6.57296">
        <ele>37.628662</ele>
        <time>2014-03-20T15:39:29Z</time>
      </trkpt>
      <trkpt lat="43.4636" lon="6.57267">
        <ele>38.590088</ele>
        <time>2014-03-20T15:39:54Z</time>
      </trkpt>
      <trkpt lat="43.46367" lon="6.57231">
        <ele>38.590088</ele>
        <time>2014-03-20T15:40:19Z</time>
      </trkpt>
      <trkpt lat="43.4637" lon="6.57216">
        <ele>38.109375</ele>
        <time>2014-03-20T15:40:44Z</time>
      </trkpt>
    </trkseg>
  </trk>
</gpx>